Terminal Aerodrome Forecast
Issued by NWS Raleigh/Durham, NC

Home | Current Version | Previous Version | Text Only | Print | Product List | Glossary On
Versions: 1 2 3 4 5 6 7 8 9 10 11 12 13 14 15 16 17 18 19 20 21 22 23 24 25 26 27 28 29 30 31 32 33 34 35
000
FTUS42 KRAH 231737
TAFFAY
TAF
KFAY 231737Z 2318/2418 22014G23KT P6SM SCT035
     FM240400 22018G28KT P6SM BKN100
      TEMPO 2405/2409 22025G35KT
     FM240900 22012G20KT P6SM SCT010 BKN100
     FM241300 24010KT P6SM SCT015=

USA.gov is the U.S. government's official web portal to all federal, state and local government web resources and services.